sensor_id;sensor_type;location;lat;lon;timestamp;temperature;humidity
15717;DHT22;7960;50.908;4.204;2023-06-04T00:02:10;16.60;60.80
15717;DHT22;7960;50.908;4.204;2023-06-04T00:04:37;16.60;61.10
15717;DHT22;7960;50.908;4.204;2023-06-04T00:07:05;16.60;61.10
15717;DHT22;7960;50.908;4.204;2023-06-04T00:09:32;16.30;61.50
15717;DHT22;7960;50.908;4.204;2023-06-04T00:11:59;16.30;62.10
15717;DHT22;7960;50.908;4.204;2023-06-04T00:14:26;16.20;62.10
15717;DHT22;7960;50.908;4.204;2023-06-04T00:16:53;16.20;62.80
15717;DHT22;7960;50.908;4.204;2023-06-04T00:19:22;16.40;63.00
15717;DHT22;7960;50.908;4.204;2023-06-04T00:21:49;16.20;62.40
15717;DHT22;7960;50.908;4.204;2023-06-04T00:24:18;16.20;62.80
15717;DHT22;7960;50.908;4.204;2023-06-04T00:26:45;16.10;63.90
15717;DHT22;7960;50.908;4.204;2023-06-04T00:29:12;16.00;63.50
15717;DHT22;7960;50.908;4.204;2023-06-04T00:31:39;15.90;63.90
15717;DHT22;7960;50.908;4.204;2023-06-04T00:34:06;16.00;64.00
15717;DHT22;7960;50.908;4.204;2023-06-04T00:36:35;16.00;64.30
15717;DHT22;7960;50.908;4.204;2023-06-04T00:39:02;16.00;64.40
15717;DHT22;7960;50.908;4.204;2023-06-04T00:41:29;16.00;64.50
15717;DHT22;7960;50.908;4.204;2023-06-04T00:43:56;16.00;64.90
15717;DHT22;7960;50.908;4.204;2023-06-04T00:46:24;15.90;65.10
15717;DHT22;7960;50.908;4.204;2023-06-04T00:48:52;15.90;65.10
15717;DHT22;7960;50.908;4.204;2023-06-04T00:51:19;15.90;65.40
15717;DHT22;7960;50.908;4.204;2023-06-04T00:53:49;15.90;65.40
15717;DHT22;7960;50.908;4.204;2023-06-04T00:56:16;15.70;65.40
15717;DHT22;7960;50.908;4.204;2023-06-04T00:58:44;15.60;66.30
15717;DHT22;7960;50.908;4.204;2023-06-04T01:01:17;15.50;66.50
15717;DHT22;7960;50.908;4.204;2023-06-04T01:03:49;15.30;66.90
15717;DHT22;7960;50.908;4.204;2023-06-04T01:06:23;15.30;67.50
15717;DHT22;7960;50.908;4.204;2023-06-04T01:08:55;15.20;67.90
15717;DHT22;7960;50.908;4.204;2023-06-04T01:11:34;15.20;68.20
15717;DHT22;7960;50.908;4.204;2023-06-04T01:14:02;15.30;68.80
15717;DHT22;7960;50.908;4.204;2023-06-04T01:16:33;15.20;69.00
15717;DHT22;7960;50.908;4.204;2023-06-04T01:19:02;15.20;69.10
15717;DHT22;7960;50.908;4.204;2023-06-04T01:21:34;15.20;69.70
15717;DHT22;7960;50.908;4.204;2023-06-04T01:24:06;15.10;70.00
15717;DHT22;7960;50.908;4.204;2023-06-04T01:26:34;15.00;70.60
15717;DHT22;7960;50.908;4.204;2023-06-04T01:29:04;14.90;70.90
15717;DHT22;7960;50.908;4.204;2023-06-04T01:31:31;14.70;71.60
15717;DHT22;7960;50.908;4.204;2023-06-04T01:33:58;14.70;73.00
15717;DHT22;7960;50.908;4.204;2023-06-04T01:36:25;14.70;72.60
15717;DHT22;7960;50.908;4.204;2023-06-04T01:38:52;14.70;73.20
15717;DHT22;7960;50.908;4.204;2023-06-04T01:41:21;14.60;73.60
15717;DHT22;7960;50.908;4.204;2023-06-04T01:43:50;14.30;74.60
15717;DHT22;7960;50.908;4.204;2023-06-04T01:46:17;14.40;75.50
15717;DHT22;7960;50.908;4.204;2023-06-04T01:48:44;14.30;76.20
15717;DHT22;7960;50.908;4.204;2023-06-04T01:51:14;14.30;76.90
15717;DHT22;7960;50.908;4.204;2023-06-04T01:53:42;14.30;77.60
15717;DHT22;7960;50.908;4.204;2023-06-04T01:56:09;14.40;78.10
15717;DHT22;7960;50.908;4.204;2023-06-04T01:58:38;14.50;78.50
15717;DHT22;7960;50.908;4.204;2023-06-04T02:01:05;14.20;78.90
15717;DHT22;7960;50.908;4.204;2023-06-04T02:03:32;14.30;79.90
15717;DHT22;7960;50.908;4.204;2023-06-04T02:06:03;14.20;80.60
15717;DHT22;7960;50.908;4.204;2023-06-04T02:08:30;14.10;81.40
15717;DHT22;7960;50.908;4.204;2023-06-04T02:10:59;14.20;82.00
15717;DHT22;7960;50.908;4.204;2023-06-04T02:13:25;14.10;82.70
15717;DHT22;7960;50.908;4.204;2023-06-04T02:15:54;14.00;83.20
15717;DHT22;7960;50.908;4.204;2023-06-04T02:18:23;14.10;84.20
15717;DHT22;7960;50.908;4.204;2023-06-04T02:20:50;14.10;84.70
15717;DHT22;7960;50.908;4.204;2023-06-04T02:23:19;13.90;84.90
15717;DHT22;7960;50.908;4.204;2023-06-04T02:25:46;13.80;85.80
15717;DHT22;7960;50.908;4.204;2023-06-04T02:28:15;13.80;86.50
15717;DHT22;7960;50.908;4.204;2023-06-04T02:30:43;13.80;87.10
15717;DHT22;7960;50.908;4.204;2023-06-04T02:33:12;13.80;87.60
15717;DHT22;7960;50.908;4.204;2023-06-04T02:35:39;13.90;87.90
15717;DHT22;7960;50.908;4.204;2023-06-04T02:38:06;13.80;88.20
15717;DHT22;7960;50.908;4.204;2023-06-04T02:40:33;13.80;88.60
15717;DHT22;7960;50.908;4.204;2023-06-04T02:43:00;13.90;88.90
15717;DHT22;7960;50.908;4.204;2023-06-04T02:45:27;13.90;89.00
15717;DHT22;7960;50.908;4.204;2023-06-04T02:47:55;13.90;89.00
15717;DHT22;7960;50.908;4.204;2023-06-04T02:50:23;13.80;89.50
15717;DHT22;7960;50.908;4.204;2023-06-04T02:52:50;13.80;90.00
15717;DHT22;7960;50.908;4.204;2023-06-04T02:55:17;13.80;90.10
15717;DHT22;7960;50.908;4.204;2023-06-04T02:57:44;13.80;90.20
15717;DHT22;7960;50.908;4.204;2023-06-04T03:00:12;14.00;90.20
15717;DHT22;7960;50.908;4.204;2023-06-04T03:02:44;13.90;90.30
15717;DHT22;7960;50.908;4.204;2023-06-04T03:05:14;13.90;90.40
15717;DHT22;7960;50.908;4.204;2023-06-04T03:07:45;13.80;90.50
15717;DHT22;7960;50.908;4.204;2023-06-04T03:10:15;13.70;90.80
15717;DHT22;7960;50.908;4.204;2023-06-04T03:12:45;13.80;91.00
15717;DHT22;7960;50.908;4.204;2023-06-04T03:15:11;13.70;91.10
15717;DHT22;7960;50.908;4.204;2023-06-04T03:17:38;13.60;91.20
15717;DHT22;7960;50.908;4.204;2023-06-04T03:20:06;13.60;91.50
15717;DHT22;7960;50.908;4.204;2023-06-04T03:22:34;13.50;91.70
15717;DHT22;7960;50.908;4.204;2023-06-04T03:25:04;13.50;91.90
15717;DHT22;7960;50.908;4.204;2023-06-04T03:27:32;13.50;92.10
15717;DHT22;7960;50.908;4.204;2023-06-04T03:29:59;13.50;92.30
15717;DHT22;7960;50.908;4.204;2023-06-04T03:32:27;13.20;92.50
15717;DHT22;7960;50.908;4.204;2023-06-04T03:34:54;13.30;92.80
15717;DHT22;7960;50.908;4.204;2023-06-04T03:37:23;13.50;92.90
15717;DHT22;7960;50.908;4.204;2023-06-04T03:39:50;13.40;92.90
15717;DHT22;7960;50.908;4.204;2023-06-04T03:42:18;13.50;93.00
15717;DHT22;7960;50.908;4.204;2023-06-04T03:44:45;13.40;93.10
15717;DHT22;7960;50.908;4.204;2023-06-04T03:47:12;13.30;93.30
15717;DHT22;7960;50.908;4.204;2023-06-04T03:49:39;13.30;93.60
15717;DHT22;7960;50.908;4.204;2023-06-04T03:52:06;13.20;93.60
15717;DHT22;7960;50.908;4.204;2023-06-04T03:54:33;13.10;93.70
15717;DHT22;7960;50.908;4.204;2023-06-04T03:57:00;13.10;94.00
15717;DHT22;7960;50.908;4.204;2023-06-04T03:59:28;13.20;94.30
15717;DHT22;7960;50.908;4.204;2023-06-04T04:01:56;13.10;94.40
15717;DHT22;7960;50.908;4.204;2023-06-04T04:04:23;13.20;94.60
15717;DHT22;7960;50.908;4.204;2023-06-04T04:06:50;13.30;94.70
15717;DHT22;7960;50.908;4.204;2023-06-04T04:09:16;13.30;94.70
15717;DHT22;7960;50.908;4.204;2023-06-04T04:11:43;13.50;94.70
15717;DHT22;7960;50.908;4.204;2023-06-04T04:14:10;13.40;94.80
15717;DHT22;7960;50.908;4.204;2023-06-04T04:16:38;13.30;94.80
15717;DHT22;7960;50.908;4.204;2023-06-04T04:19:05;13.20;95.10
15717;DHT22;7960;50.908;4.204;2023-06-04T04:21:33;13.10;95.30
15717;DHT22;7960;50.908;4.204;2023-06-04T04:24:02;13.20;95.50
15717;DHT22;7960;50.908;4.204;2023-06-04T04:26:28;13.10;95.60
15717;DHT22;7960;50.908;4.204;2023-06-04T04:28:55;13.10;95.90
15717;DHT22;7960;50.908;4.204;2023-06-04T04:31:23;13.00;96.40
15717;DHT22;7960;50.908;4.204;2023-06-04T04:33:52;13.00;96.40
15717;DHT22;7960;50.908;4.204;2023-06-04T04:36:19;13.00;96.50
15717;DHT22;7960;50.908;4.204;2023-06-04T04:38:46;13.00;96.60
15717;DHT22;7960;50.908;4.204;2023-06-04T04:41:19;13.00;96.90
15717;DHT22;7960;50.908;4.204;2023-06-04T04:43:46;13.10;97.10
15717;DHT22;7960;50.908;4.204;2023-06-04T04:46:13;13.10;97.10
15717;DHT22;7960;50.908;4.204;2023-06-04T04:48:40;13.00;97.20
15717;DHT22;7960;50.908;4.204;2023-06-04T04:51:09;13.00;97.50
15717;DHT22;7960;50.908;4.204;2023-06-04T04:53:38;13.10;97.40
15717;DHT22;7960;50.908;4.204;2023-06-04T04:56:05;13.20;97.40
15717;DHT22;7960;50.908;4.204;2023-06-04T04:58:32;13.30;97.40
15717;DHT22;7960;50.908;4.204;2023-06-04T05:00:59;13.40;97.70
15717;DHT22;7960;50.908;4.204;2023-06-04T05:03:26;13.40;97.40
15717;DHT22;7960;50.908;4.204;2023-06-04T05:05:53;13.50;97.40
15717;DHT22;7960;50.908;4.204;2023-06-04T05:08:21;13.50;97.40
15717;DHT22;7960;50.908;4.204;2023-06-04T05:10:49;13.40;97.40
15717;DHT22;7960;50.908;4.204;2023-06-04T05:13:16;13.40;97.60
15717;DHT22;7960;50.908;4.204;2023-06-04T05:15:44;13.50;97.70
15717;DHT22;7960;50.908;4.204;2023-06-04T05:18:16;13.60;97.80
15717;DHT22;7960;50.908;4.204;2023-06-04T05:20:46;13.60;97.80
15717;DHT22;7960;50.908;4.204;2023-06-04T05:23:13;13.70;97.80
15717;DHT22;7960;50.908;4.204;2023-06-04T05:25:41;13.80;97.70
15717;DHT22;7960;50.908;4.204;2023-06-04T05:28:08;13.80;97.60
15717;DHT22;7960;50.908;4.204;2023-06-04T05:30:35;13.80;97.50
15717;DHT22;7960;50.908;4.204;2023-06-04T05:33:07;13.70;97.60
15717;DHT22;7960;50.908;4.204;2023-06-04T05:35:34;13.90;97.80
15717;DHT22;7960;50.908;4.204;2023-06-04T05:38:01;14.00;97.80
15717;DHT22;7960;50.908;4.204;2023-06-04T05:40:28;14.10;97.70
15717;DHT22;7960;50.908;4.204;2023-06-04T05:42:56;14.10;97.40
15717;DHT22;7960;50.908;4.204;2023-06-04T05:45:23;14.20;97.40
15717;DHT22;7960;50.908;4.204;2023-06-04T05:47:50;14.30;97.50
15717;DHT22;7960;50.908;4.204;2023-06-04T05:50:20;14.40;97.40
15717;DHT22;7960;50.908;4.204;2023-06-04T05:52:47;14.50;97.20
15717;DHT22;7960;50.908;4.204;2023-06-04T05:55:14;14.50;97.00
15717;DHT22;7960;50.908;4.204;2023-06-04T05:57:42;14.60;97.10
15717;DHT22;7960;50.908;4.204;2023-06-04T06:00:11;14.70;96.80
15717;DHT22;7960;50.908;4.204;2023-06-04T06:02:39;14.70;96.50
15717;DHT22;7960;50.908;4.204;2023-06-04T06:05:06;14.70;96.60
15717;DHT22;7960;50.908;4.204;2023-06-04T06:07:34;14.90;96.70
15717;DHT22;7960;50.908;4.204;2023-06-04T06:10:01;15.00;96.40
15717;DHT22;7960;50.908;4.204;2023-06-04T06:12:28;15.00;96.40
15717;DHT22;7960;50.908;4.204;2023-06-04T06:14:55;15.10;96.10
15717;DHT22;7960;50.908;4.204;2023-06-04T06:17:23;15.10;95.90
15717;DHT22;7960;50.908;4.204;2023-06-04T06:19:51;15.10;95.90
15717;DHT22;7960;50.908;4.204;2023-06-04T06:22:18;15.20;95.70
15717;DHT22;7960;50.908;4.204;2023-06-04T06:24:45;15.40;95.70
15717;DHT22;7960;50.908;4.204;2023-06-04T06:27:14;15.40;95.40
15717;DHT22;7960;50.908;4.204;2023-06-04T06:29:41;15.50;95.00
15717;DHT22;7960;50.908;4.204;2023-06-04T06:32:09;15.60;94.60
15717;DHT22;7960;50.908;4.204;2023-06-04T06:34:38;15.60;94.60
15717;DHT22;7960;50.908;4.204;2023-06-04T06:37:06;15.70;94.60
15717;DHT22;7960;50.908;4.204;2023-06-04T06:39:33;15.80;94.20
15717;DHT22;7960;50.908;4.204;2023-06-04T06:42:00;15.90;93.50
15717;DHT22;7960;50.908;4.204;2023-06-04T06:44:27;15.90;93.30
15717;DHT22;7960;50.908;4.204;2023-06-04T06:46:54;16.00;92.90
15717;DHT22;7960;50.908;4.204;2023-06-04T06:49:20;16.00;92.60
15717;DHT22;7960;50.908;4.204;2023-06-04T06:51:49;16.20;92.90
15717;DHT22;7960;50.908;4.204;2023-06-04T06:54:15;16.10;92.40
15717;DHT22;7960;50.908;4.204;2023-06-04T06:56:43;16.10;92.50
15717;DHT22;7960;50.908;4.204;2023-06-04T06:59:10;16.20;92.50
15717;DHT22;7960;50.908;4.204;2023-06-04T07:01:38;16.40;92.30
15717;DHT22;7960;50.908;4.204;2023-06-04T07:04:05;16.30;91.80
15717;DHT22;7960;50.908;4.204;2023-06-04T07:06:34;16.40;92.30
15717;DHT22;7960;50.908;4.204;2023-06-04T07:09:03;16.50;92.40
15717;DHT22;7960;50.908;4.204;2023-06-04T07:11:31;16.60;92.20
15717;DHT22;7960;50.908;4.204;2023-06-04T07:13:58;16.60;91.50
15717;DHT22;7960;50.908;4.204;2023-06-04T07:16:24;16.60;91.40
15717;DHT22;7960;50.908;4.204;2023-06-04T07:18:51;16.60;90.90
15717;DHT22;7960;50.908;4.204;2023-06-04T07:21:18;16.70;90.80
15717;DHT22;7960;50.908;4.204;2023-06-04T07:23:47;16.80;90.90
15717;DHT22;7960;50.908;4.204;2023-06-04T07:26:18;16.90;90.60
15717;DHT22;7960;50.908;4.204;2023-06-04T07:28:44;17.00;90.50
15717;DHT22;7960;50.908;4.204;2023-06-04T07:31:15;17.00;90.40
15717;DHT22;7960;50.908;4.204;2023-06-04T07:33:42;17.10;90.00
15717;DHT22;7960;50.908;4.204;2023-06-04T07:36:10;17.20;89.40
15717;DHT22;7960;50.908;4.204;2023-06-04T07:38:37;17.20;88.90
15717;DHT22;7960;50.908;4.204;2023-06-04T07:41:04;17.30;90.10
15717;DHT22;7960;50.908;4.204;2023-06-04T07:43:33;17.40;89.50
15717;DHT22;7960;50.908;4.204;2023-06-04T07:46:00;17.50;88.60
15717;DHT22;7960;50.908;4.204;2023-06-04T07:48:27;17.50;88.30
15717;DHT22;7960;50.908;4.204;2023-06-04T07:50:57;17.70;88.50
15717;DHT22;7960;50.908;4.204;2023-06-04T07:53:26;17.70;87.50
15717;DHT22;7960;50.908;4.204;2023-06-04T07:55:54;17.80;86.30
15717;DHT22;7960;50.908;4.204;2023-06-04T07:58:21;17.70;85.60
15717;DHT22;7960;50.908;4.204;2023-06-04T08:00:50;17.80;85.80
15717;DHT22;7960;50.908;4.204;2023-06-04T08:03:17;18.00;85.60
15717;DHT22;7960;50.908;4.204;2023-06-04T08:05:46;18.20;85.00
15717;DHT22;7960;50.908;4.204;2023-06-04T08:08:13;18.40;82.60
15717;DHT22;7960;50.908;4.204;2023-06-04T08:10:40;18.50;80.30
15717;DHT22;7960;50.908;4.204;2023-06-04T08:13:07;18.60;80.10
15717;DHT22;7960;50.908;4.204;2023-06-04T08:15:37;18.70;80.00
15717;DHT22;7960;50.908;4.204;2023-06-04T08:18:05;18.80;79.90
15717;DHT22;7960;50.908;4.204;2023-06-04T08:20:32;18.90;78.00
15717;DHT22;7960;50.908;4.204;2023-06-04T08:22:59;18.90;75.30
15717;DHT22;7960;50.908;4.204;2023-06-04T08:25:27;19.10;74.40
15717;DHT22;7960;50.908;4.204;2023-06-04T08:27:55;19.20;74.20
15717;DHT22;7960;50.908;4.204;2023-06-04T08:30:23;19.20;73.40
15717;DHT22;7960;50.908;4.204;2023-06-04T08:32:51;19.30;73.30
15717;DHT22;7960;50.908;4.204;2023-06-04T08:35:19;19.40;72.80
15717;DHT22;7960;50.908;4.204;2023-06-04T08:37:48;19.50;72.10
15717;DHT22;7960;50.908;4.204;2023-06-04T08:40:15;19.50;72.10
15717;DHT22;7960;50.908;4.204;2023-06-04T08:42:43;19.60;72.50
15717;DHT22;7960;50.908;4.204;2023-06-04T08:45:12;19.60;71.50
15717;DHT22;7960;50.908;4.204;2023-06-04T08:47:43;19.60;71.50
15717;DHT22;7960;50.908;4.204;2023-06-04T08:50:12;19.70;70.30
15717;DHT22;7960;50.908;4.204;2023-06-04T08:52:43;19.70;69.70
15717;DHT22;7960;50.908;4.204;2023-06-04T08:55:11;19.80;69.70
15717;DHT22;7960;50.908;4.204;2023-06-04T08:57:39;20.00;70.50
15717;DHT22;7960;50.908;4.204;2023-06-04T09:00:07;20.20;69.40
15717;DHT22;7960;50.908;4.204;2023-06-04T09:02:35;20.40;68.60
15717;DHT22;7960;50.908;4.204;2023-06-04T09:05:04;20.40;68.80
15717;DHT22;7960;50.908;4.204;2023-06-04T09:07:35;20.40;67.50
15717;DHT22;7960;50.908;4.204;2023-06-04T09:10:05;20.30;66.90
15717;DHT22;7960;50.908;4.204;2023-06-04T09:12:36;20.30;65.50
15717;DHT22;7960;50.908;4.204;2023-06-04T09:15:03;20.40;66.20
15717;DHT22;7960;50.908;4.204;2023-06-04T09:17:30;20.60;63.80
15717;DHT22;7960;50.908;4.204;2023-06-04T09:19:57;20.70;64.20
15717;DHT22;7960;50.908;4.204;2023-06-04T09:22:32;20.70;63.10
15717;DHT22;7960;50.908;4.204;2023-06-04T09:24:59;20.80;63.10
15717;DHT22;7960;50.908;4.204;2023-06-04T09:27:27;21.00;63.10
15717;DHT22;7960;50.908;4.204;2023-06-04T09:29:56;21.20;62.20
15717;DHT22;7960;50.908;4.204;2023-06-04T09:32:22;21.20;60.80
15717;DHT22;7960;50.908;4.204;2023-06-04T09:34:49;21.30;60.90
15717;DHT22;7960;50.908;4.204;2023-06-04T09:37:18;21.50;62.40
15717;DHT22;7960;50.908;4.204;2023-06-04T09:39:52;21.60;60.50
15717;DHT22;7960;50.908;4.204;2023-06-04T09:42:20;21.70;59.70
15717;DHT22;7960;50.908;4.204;2023-06-04T09:44:49;21.80;59.20
15717;DHT22;7960;50.908;4.204;2023-06-04T09:47:16;21.90;59.40
15717;DHT22;7960;50.908;4.204;2023-06-04T09:49:43;22.10;58.90
15717;DHT22;7960;50.908;4.204;2023-06-04T09:52:10;22.10;58.60
15717;DHT22;7960;50.908;4.204;2023-06-04T09:54:39;22.10;57.30
15717;DHT22;7960;50.908;4.204;2023-06-04T09:57:14;22.00;57.30
15717;DHT22;7960;50.908;4.204;2023-06-04T09:59:44;22.10;57.70
15717;DHT22;7960;50.908;4.204;2023-06-04T10:02:13;22.30;57.30
15717;DHT22;7960;50.908;4.204;2023-06-04T10:04:41;22.40;58.00
15717;DHT22;7960;50.908;4.204;2023-06-04T10:07:11;22.60;56.90
15717;DHT22;7960;50.908;4.204;2023-06-04T10:09:39;22.90;56.50
15717;DHT22;7960;50.908;4.204;2023-06-04T10:12:11;23.00;57.10
15717;DHT22;7960;50.908;4.204;2023-06-04T10:14:42;23.20;57.10
15717;DHT22;7960;50.908;4.204;2023-06-04T10:17:15;23.00;55.20
15717;DHT22;7960;50.908;4.204;2023-06-04T10:19:44;23.00;55.10
15717;DHT22;7960;50.908;4.204;2023-06-04T10:22:11;22.80;55.20
15717;DHT22;7960;50.908;4.204;2023-06-04T10:24:38;23.00;55.00
15717;DHT22;7960;50.908;4.204;2023-06-04T10:27:06;23.00;54.70
15717;DHT22;7960;50.908;4.204;2023-06-04T10:29:36;23.10;55.50
15717;DHT22;7960;50.908;4.204;2023-06-04T10:32:05;23.10;53.90
15717;DHT22;7960;50.908;4.204;2023-06-04T10:34:35;23.20;54.00
15717;DHT22;7960;50.908;4.204;2023-06-04T10:37:03;23.20;53.40
15717;DHT22;7960;50.908;4.204;2023-06-04T10:39:31;23.40;53.80
15717;DHT22;7960;50.908;4.204;2023-06-04T10:41:59;23.50;52.80
15717;DHT22;7960;50.908;4.204;2023-06-04T10:44:26;23.20;52.20
15717;DHT22;7960;50.908;4.204;2023-06-04T10:46:53;23.30;52.60
15717;DHT22;7960;50.908;4.204;2023-06-04T10:49:27;23.40;52.50
15717;DHT22;7960;50.908;4.204;2023-06-04T10:51:55;23.40;52.50
15717;DHT22;7960;50.908;4.204;2023-06-04T10:54:23;23.70;52.20
15717;DHT22;7960;50.908;4.204;2023-06-04T10:56:51;23.80;51.60
15717;DHT22;7960;50.908;4.204;2023-06-04T10:59:18;23.90;51.00
15717;DHT22;7960;50.908;4.204;2023-06-04T11:01:45;23.90;50.90
15717;DHT22;7960;50.908;4.204;2023-06-04T11:04:20;23.60;49.50
15717;DHT22;7960;50.908;4.204;2023-06-04T11:06:48;23.60;50.90
15717;DHT22;7960;50.908;4.204;2023-06-04T11:09:16;23.60;50.70
15717;DHT22;7960;50.908;4.204;2023-06-04T11:11:44;23.80;50.90
15717;DHT22;7960;50.908;4.204;2023-06-04T11:14:11;23.90;51.30
15717;DHT22;7960;50.908;4.204;2023-06-04T11:16:39;24.10;50.10
15717;DHT22;7960;50.908;4.204;2023-06-04T11:19:06;24.00;49.20
15717;DHT22;7960;50.908;4.204;2023-06-04T11:21:34;23.80;48.80
15717;DHT22;7960;50.908;4.204;2023-06-04T11:24:05;24.10;49.80
15717;DHT22;7960;50.908;4.204;2023-06-04T11:26:35;24.10;48.40
15717;DHT22;7960;50.908;4.204;2023-06-04T11:29:06;23.90;48.40
15717;DHT22;7960;50.908;4.204;2023-06-04T11:31:41;23.80;49.70
15717;DHT22;7960;50.908;4.204;2023-06-04T11:34:22;24.10;49.30
15717;DHT22;7960;50.908;4.204;2023-06-04T11:36:48;24.50;48.40
15717;DHT22;7960;50.908;4.204;2023-06-04T11:39:18;24.50;46.90
15717;DHT22;7960;50.908;4.204;2023-06-04T11:41:47;24.60;48.60
15717;DHT22;7960;50.908;4.204;2023-06-04T11:44:14;24.60;49.10
15717;DHT22;7960;50.908;4.204;2023-06-04T11:46:42;24.70;47.40
15717;DHT22;7960;50.908;4.204;2023-06-04T11:49:12;24.90;48.50
15717;DHT22;7960;50.908;4.204;2023-06-04T11:51:45;25.10;48.90
15717;DHT22;7960;50.908;4.204;2023-06-04T11:54:13;25.10;48.10
15717;DHT22;7960;50.908;4.204;2023-06-04T11:56:41;25.30;48.00
15717;DHT22;7960;50.908;4.204;2023-06-04T11:59:11;25.50;47.50
15717;DHT22;7960;50.908;4.204;2023-06-04T12:01:39;25.50;47.70
15717;DHT22;7960;50.908;4.204;2023-06-04T12:04:12;25.60;47.10
15717;DHT22;7960;50.908;4.204;2023-06-04T12:06:50;25.70;46.20
15717;DHT22;7960;50.908;4.204;2023-06-04T12:09:20;25.80;46.80
15717;DHT22;7960;50.908;4.204;2023-06-04T12:11:47;25.80;46.60
15717;DHT22;7960;50.908;4.204;2023-06-04T12:14:17;25.90;46.00
15717;DHT22;7960;50.908;4.204;2023-06-04T12:16:54;25.70;45.40
15717;DHT22;7960;50.908;4.204;2023-06-04T12:19:21;25.80;45.10
15717;DHT22;7960;50.908;4.204;2023-06-04T12:21:59;25.70;44.80
15717;DHT22;7960;50.908;4.204;2023-06-04T12:24:27;25.90;44.70
15717;DHT22;7960;50.908;4.204;2023-06-04T12:27:06;26.00;45.30
15717;DHT22;7960;50.908;4.204;2023-06-04T12:29:35;26.20;45.30
15717;DHT22;7960;50.908;4.204;2023-06-04T12:32:05;26.00;44.90
15717;DHT22;7960;50.908;4.204;2023-06-04T12:34:34;26.00;45.80
15717;DHT22;7960;50.908;4.204;2023-06-04T12:37:01;26.20;44.90
15717;DHT22;7960;50.908;4.204;2023-06-04T12:39:31;26.00;44.00
15717;DHT22;7960;50.908;4.204;2023-06-04T12:41:58;26.30;44.00
15717;DHT22;7960;50.908;4.204;2023-06-04T12:44:27;26.30;43.90
15717;DHT22;7960;50.908;4.204;2023-06-04T12:46:55;26.50;44.30
15717;DHT22;7960;50.908;4.204;2023-06-04T12:49:22;26.70;43.00
15717;DHT22;7960;50.908;4.204;2023-06-04T12:51:49;26.70;42.40
15717;DHT22;7960;50.908;4.204;2023-06-04T12:54:16;26.90;43.20
15717;DHT22;7960;50.908;4.204;2023-06-04T12:56:43;27.00;43.60
15717;DHT22;7960;50.908;4.204;2023-06-04T12:59:10;27.30;43.90
15717;DHT22;7960;50.908;4.204;2023-06-04T13:01:37;27.20;43.70
15717;DHT22;7960;50.908;4.204;2023-06-04T13:04:06;27.40;43.90
15717;DHT22;7960;50.908;4.204;2023-06-04T13:06:38;27.40;41.90
15717;DHT22;7960;50.908;4.204;2023-06-04T13:09:06;27.50;42.80
15717;DHT22;7960;50.908;4.204;2023-06-04T13:11:39;27.40;43.00
15717;DHT22;7960;50.908;4.204;2023-06-04T13:14:07;27.20;41.60
15717;DHT22;7960;50.908;4.204;2023-06-04T13:16:34;27.30;42.80
15717;DHT22;7960;50.908;4.204;2023-06-04T13:19:01;27.30;42.10
15717;DHT22;7960;50.908;4.204;2023-06-04T13:21:29;27.70;42.60
15717;DHT22;7960;50.908;4.204;2023-06-04T13:23:57;27.90;41.30
15717;DHT22;7960;50.908;4.204;2023-06-04T13:26:25;27.50;41.60
15717;DHT22;7960;50.908;4.204;2023-06-04T13:28:52;27.60;41.90
15717;DHT22;7960;50.908;4.204;2023-06-04T13:31:19;27.70;41.70
15717;DHT22;7960;50.908;4.204;2023-06-04T13:33:46;27.80;41.80
15717;DHT22;7960;50.908;4.204;2023-06-04T13:36:13;27.60;40.80
15717;DHT22;7960;50.908;4.204;2023-06-04T13:38:41;27.50;40.70
15717;DHT22;7960;50.908;4.204;2023-06-04T13:41:08;27.60;40.90
15717;DHT22;7960;50.908;4.204;2023-06-04T13:43:35;27.90;41.50
15717;DHT22;7960;50.908;4.204;2023-06-04T13:46:03;27.80;40.30
15717;DHT22;7960;50.908;4.204;2023-06-04T13:48:30;28.10;40.40
15717;DHT22;7960;50.908;4.204;2023-06-04T13:50:56;28.20;40.50
15717;DHT22;7960;50.908;4.204;2023-06-04T13:53:23;28.40;41.00
15717;DHT22;7960;50.908;4.204;2023-06-04T13:55:51;28.00;39.70
15717;DHT22;7960;50.908;4.204;2023-06-04T13:58:23;27.70;39.80
15717;DHT22;7960;50.908;4.204;2023-06-04T14:00:50;27.70;40.50
15717;DHT22;7960;50.908;4.204;2023-06-04T14:03:18;27.80;40.10
15717;DHT22;7960;50.908;4.204;2023-06-04T14:05:45;28.30;40.90
15717;DHT22;7960;50.908;4.204;2023-06-04T14:08:14;28.80;40.20
15717;DHT22;7960;50.908;4.204;2023-06-04T14:10:41;28.90;40.00
15717;DHT22;7960;50.908;4.204;2023-06-04T14:13:09;28.90;39.10
15717;DHT22;7960;50.908;4.204;2023-06-04T14:15:37;28.30;38.60
15717;DHT22;7960;50.908;4.204;2023-06-04T14:18:04;28.00;39.00
15717;DHT22;7960;50.908;4.204;2023-06-04T14:20:33;28.10;39.90
15717;DHT22;7960;50.908;4.204;2023-06-04T14:23:00;28.10;40.00
15717;DHT22;7960;50.908;4.204;2023-06-04T14:25:27;28.60;40.00
15717;DHT22;7960;50.908;4.204;2023-06-04T14:27:54;28.60;39.30
15717;DHT22;7960;50.908;4.204;2023-06-04T14:30:22;28.80;40.50
15717;DHT22;7960;50.908;4.204;2023-06-04T14:32:49;28.80;39.00
15717;DHT22;7960;50.908;4.204;2023-06-04T14:35:16;29.00;38.80
15717;DHT22;7960;50.908;4.204;2023-06-04T14:37:46;28.80;38.20
15717;DHT22;7960;50.908;4.204;2023-06-04T14:40:14;28.70;37.70
15717;DHT22;7960;50.908;4.204;2023-06-04T14:42:42;29.00;39.00
15717;DHT22;7960;50.908;4.204;2023-06-04T14:45:09;28.60;37.90
15717;DHT22;7960;50.908;4.204;2023-06-04T14:47:37;28.60;38.80
15717;DHT22;7960;50.908;4.204;2023-06-04T14:50:05;28.60;38.40
15717;DHT22;7960;50.908;4.204;2023-06-04T14:52:32;28.40;38.10
15717;DHT22;7960;50.908;4.204;2023-06-04T14:54:58;28.20;38.30
15717;DHT22;7960;50.908;4.204;2023-06-04T14:57:25;28.20;39.00
15717;DHT22;7960;50.908;4.204;2023-06-04T14:59:52;28.30;40.20
15717;DHT22;7960;50.908;4.204;2023-06-04T15:02:19;27.90;38.60
15717;DHT22;7960;50.908;4.204;2023-06-04T15:04:47;27.90;39.20
15717;DHT22;7960;50.908;4.204;2023-06-04T15:07:14;28.00;39.10
15717;DHT22;7960;50.908;4.204;2023-06-04T15:09:41;28.50;39.90
15717;DHT22;7960;50.908;4.204;2023-06-04T15:12:08;29.00;39.30
15717;DHT22;7960;50.908;4.204;2023-06-04T15:14:35;28.50;37.90
15717;DHT22;7960;50.908;4.204;2023-06-04T15:17:02;28.50;38.40
15717;DHT22;7960;50.908;4.204;2023-06-04T15:19:28;28.60;38.90
15717;DHT22;7960;50.908;4.204;2023-06-04T15:21:57;28.60;39.10
15717;DHT22;7960;50.908;4.204;2023-06-04T15:24:24;28.60;38.60
15717;DHT22;7960;50.908;4.204;2023-06-04T15:26:51;28.60;38.00
15717;DHT22;7960;50.908;4.204;2023-06-04T15:29:17;28.50;38.80
15717;DHT22;7960;50.908;4.204;2023-06-04T15:31:44;28.90;39.30
15717;DHT22;7960;50.908;4.204;2023-06-04T15:34:13;29.10;38.40
15717;DHT22;7960;50.908;4.204;2023-06-04T15:36:40;28.60;37.70
15717;DHT22;7960;50.908;4.204;2023-06-04T15:39:09;28.80;38.40
15717;DHT22;7960;50.908;4.204;2023-06-04T15:41:36;28.80;38.20
15717;DHT22;7960;50.908;4.204;2023-06-04T15:44:03;28.90;38.30
15717;DHT22;7960;50.908;4.204;2023-06-04T15:46:29;28.70;38.10
15717;DHT22;7960;50.908;4.204;2023-06-04T15:48:56;28.70;38.10
15717;DHT22;7960;50.908;4.204;2023-06-04T15:51:23;28.90;39.40